createdAt,value
2022-09-12T00:01:05.661Z,17.70
2022-09-12T00:03:33.933Z,17.70
2022-09-12T00:06:03.168Z,17.70
2022-09-12T00:08:31.280Z,17.70
2022-09-12T00:11:03.418Z,17.60
2022-09-12T00:13:31.487Z,17.60
2022-09-12T00:16:01.858Z,17.50
2022-09-12T00:18:30.034Z,17.40
2022-09-12T00:20:58.635Z,17.40
2022-09-12T00:23:26.863Z,17.30
2022-09-12T00:25:55.205Z,17.30
2022-09-12T00:28:27.972Z,17.30
2022-09-12T00:30:56.161Z,17.30
2022-09-12T00:33:24.326Z,17.20
2022-09-12T00:35:53.324Z,17.20
2022-09-12T00:38:21.833Z,17.20
2022-09-12T00:40:50.009Z,17.20
2022-09-12T00:43:38.375Z,17.20
2022-09-12T00:46:09.048Z,17.10
2022-09-12T00:48:42.484Z,17.10
2022-09-12T00:51:10.738Z,17.10
2022-09-12T00:53:39.456Z,17.00
2022-09-12T00:56:07.710Z,17.00
2022-09-12T00:58:40.406Z,17.00
2022-09-12T01:01:08.571Z,17.00
2022-09-12T01:03:36.773Z,16.90
2022-09-12T01:06:07.259Z,17.00
2022-09-12T01:08:37.464Z,16.90
2022-09-12T01:11:06.295Z,16.90
2022-09-12T01:13:35.329Z,16.90
2022-09-12T01:16:06.555Z,16.90
2022-09-12T01:18:42.275Z,16.90
2022-09-12T01:21:17.798Z,16.90
2022-09-12T01:24:14.719Z,16.80
2022-09-12T01:27:09.245Z,16.80
2022-09-12T01:29:46.322Z,16.80
2022-09-12T01:32:19.866Z,16.80
2022-09-12T01:34:50.339Z,16.80
2022-09-12T01:37:21.179Z,16.70
2022-09-12T01:39:52.322Z,16.70
2022-09-12T01:42:22.377Z,16.70
2022-09-12T01:44:55.909Z,16.70
2022-09-12T01:47:28.785Z,16.70
2022-09-12T01:49:59.564Z,16.60
2022-09-12T01:52:29.445Z,16.60
2022-09-12T01:55:00.957Z,16.60
2022-09-12T01:57:36.519Z,16.60
2022-09-12T02:00:06.812Z,16.70
2022-09-12T02:02:37.450Z,16.70
2022-09-12T02:05:10.734Z,16.60
2022-09-12T02:07:40.502Z,16.60
2022-09-12T02:10:10.842Z,16.60
2022-09-12T02:12:41.585Z,16.60
2022-09-12T02:15:10.668Z,16.60
2022-09-12T02:17:42.434Z,16.60
2022-09-12T02:20:31.100Z,16.60
2022-09-12T02:23:04.380Z,16.60
2022-09-12T02:25:32.618Z,16.60
2022-09-12T02:28:02.702Z,16.60
2022-09-12T02:30:31.345Z,16.60
2022-09-12T02:33:02.824Z,16.50
2022-09-12T02:35:35.167Z,16.50
2022-09-12T02:38:05.637Z,16.50
2022-09-12T02:40:33.963Z,16.50
2022-09-12T02:43:04.035Z,16.40
2022-09-12T02:45:34.420Z,16.40
2022-09-12T02:48:05.901Z,16.40
2022-09-12T02:50:34.055Z,16.40
2022-09-12T02:53:05.056Z,16.50
2022-09-12T02:55:33.803Z,16.50
2022-09-12T02:58:02.281Z,16.50
2022-09-12T03:00:31.174Z,16.50
2022-09-12T03:03:24.181Z,16.50
2022-09-12T03:05:56.931Z,16.50
2022-09-12T03:08:52.451Z,16.50
2022-09-12T03:11:37.364Z,16.50
2022-09-12T03:14:10.644Z,16.40
2022-09-12T03:16:42.896Z,16.40
2022-09-12T03:19:14.713Z,16.40
2022-09-12T03:21:49.911Z,16.40
2022-09-12T03:24:19.317Z,16.40
2022-09-12T03:26:49.809Z,16.30
2022-09-12T03:29:18.086Z,16.30
2022-09-12T03:31:53.487Z,16.30
2022-09-12T03:34:21.802Z,16.30
2022-09-12T03:36:55.498Z,16.20
2022-09-12T03:39:24.400Z,16.20
2022-09-12T03:41:52.629Z,16.20
2022-09-12T03:44:21.108Z,16.20
2022-09-12T03:46:49.382Z,16.20
2022-09-12T03:49:17.672Z,16.20
2022-09-12T03:51:45.687Z,16.20
2022-09-12T03:54:15.392Z,16.20
2022-09-12T03:56:43.509Z,16.20
2022-09-12T03:59:11.920Z,16.20
2022-09-12T04:01:41.539Z,16.20
2022-09-12T04:04:10.755Z,16.20
2022-09-12T04:06:38.945Z,16.20
2022-09-12T04:09:08.347Z,16.20
2022-09-12T04:11:38.142Z,16.20
2022-09-12T04:14:06.326Z,16.20
2022-09-12T04:16:34.741Z,16.10
2022-09-12T04:19:02.926Z,16.20
2022-09-12T04:21:31.112Z,16.20
2022-09-12T04:23:59.294Z,16.20
2022-09-12T04:26:29.831Z,16.20
2022-09-12T04:28:59.418Z,16.20
2022-09-12T04:31:28.965Z,16.30
2022-09-12T04:33:57.414Z,16.30
2022-09-12T04:36:25.797Z,16.30
2022-09-12T04:38:53.997Z,16.30
2022-09-12T04:41:22.988Z,16.30
2022-09-12T04:43:53.879Z,16.30
2022-09-12T04:46:23.501Z,16.30
2022-09-12T04:48:56.469Z,16.30
2022-09-12T04:51:27.954Z,16.20
2022-09-12T04:53:59.878Z,16.20
2022-09-12T04:56:28.272Z,16.20
2022-09-12T04:58:57.972Z,16.20
2022-09-12T05:01:28.191Z,16.20
2022-09-12T05:03:56.468Z,16.20
2022-09-12T05:06:25.614Z,16.20
2022-09-12T05:08:53.963Z,16.20
2022-09-12T05:11:25.400Z,16.20
2022-09-12T05:13:56.459Z,16.20
2022-09-12T05:16:25.932Z,16.10
2022-09-12T05:18:56.940Z,16.10
2022-09-12T05:21:26.634Z,16.10
2022-09-12T05:23:55.005Z,16.00
2022-09-12T05:26:23.357Z,16.00
2022-09-12T05:28:52.432Z,16.00
2022-09-12T05:31:21.716Z,16.00
2022-09-12T05:33:52.102Z,16.00
2022-09-12T05:36:22.140Z,15.90
2022-09-12T05:38:50.304Z,15.90
2022-09-12T05:41:23.090Z,15.90
2022-09-12T05:43:54.823Z,15.90
2022-09-12T05:46:23.840Z,15.80
2022-09-12T05:48:55.239Z,15.90
2022-09-12T05:51:26.817Z,15.90
2022-09-12T05:53:57.303Z,15.90
2022-09-12T05:56:26.386Z,15.90
2022-09-12T05:58:55.309Z,15.90
2022-09-12T06:01:23.837Z,15.90
2022-09-12T06:03:52.792Z,16.00
2022-09-12T06:06:22.333Z,16.00
2022-09-12T06:08:52.901Z,16.00
2022-09-12T06:11:24.415Z,16.00
2022-09-12T06:13:53.687Z,16.00
2022-09-12T06:16:22.885Z,16.00
2022-09-12T06:18:53.897Z,16.00
2022-09-12T06:21:22.275Z,16.00
2022-09-12T06:23:52.179Z,16.00
2022-09-12T06:26:23.591Z,16.00
2022-09-12T06:28:51.673Z,16.00
2022-09-12T06:31:20.584Z,16.00
2022-09-12T06:33:49.423Z,16.00
2022-09-12T06:36:19.642Z,16.00
2022-09-12T06:38:48.760Z,16.10
2022-09-12T06:41:20.105Z,16.10
2022-09-12T06:43:48.248Z,16.20
2022-09-12T06:46:25.150Z,16.30
2022-09-12T06:48:53.404Z,16.40
2022-09-12T06:51:21.861Z,16.50
2022-09-12T06:53:50.263Z,16.60
2022-09-12T06:56:20.948Z,16.70
2022-09-12T06:58:49.555Z,16.80
2022-09-12T07:01:20.470Z,16.90
2022-09-12T07:03:49.416Z,17.00
2022-09-12T07:06:20.710Z,17.10
2022-09-12T07:08:49.170Z,17.20
2022-09-12T07:11:20.178Z,17.30
2022-09-12T07:13:49.756Z,17.40
2022-09-12T07:16:20.110Z,17.50
2022-09-12T07:18:51.760Z,17.60
2022-09-12T07:21:20.058Z,17.70
2022-09-12T07:23:48.380Z,17.80
2022-09-12T07:26:17.036Z,18.00
2022-09-12T07:28:46.900Z,18.20
2022-09-12T07:31:16.437Z,18.40
2022-09-12T07:33:45.118Z,18.60
2022-09-12T07:36:16.425Z,18.90
2022-09-12T07:38:44.918Z,19.20
2022-09-12T07:41:13.665Z,19.50
2022-09-12T07:43:41.876Z,19.60
2022-09-12T07:46:11.918Z,19.80
2022-09-12T07:48:40.938Z,19.90
2022-09-12T07:51:10.070Z,20.10
2022-09-12T07:53:39.291Z,20.30
2022-09-12T07:56:10.442Z,20.40
2022-09-12T07:58:40.480Z,20.50
2022-09-12T08:01:09.919Z,20.50
2022-09-12T08:03:39.610Z,20.50
2022-09-12T08:06:08.155Z,20.50
2022-09-12T08:08:36.442Z,20.50
2022-09-12T08:11:06.503Z,20.60
2022-09-12T08:13:35.177Z,20.60
2022-09-12T08:16:05.248Z,20.60
2022-09-12T08:18:33.722Z,20.50
2022-09-12T08:21:04.106Z,20.40
2022-09-12T08:23:32.393Z,20.30
2022-09-12T08:26:05.304Z,20.30
2022-09-12T08:28:36.101Z,20.30
2022-09-12T08:31:04.605Z,20.40
2022-09-12T08:33:33.726Z,20.60
2022-09-12T08:36:07.684Z,20.80
2022-09-12T08:38:36.057Z,21.00
2022-09-12T08:41:08.368Z,21.20
2022-09-12T08:43:56.703Z,21.40
2022-09-12T08:46:31.102Z,21.50
2022-09-12T08:48:59.242Z,21.70
2022-09-12T08:51:29.354Z,21.80
2022-09-12T08:53:57.451Z,21.90
2022-09-12T08:56:31.575Z,22.10
2022-09-12T08:59:00.170Z,22.20
2022-09-12T09:01:30.272Z,22.30
2022-09-12T09:04:05.762Z,22.50
2022-09-12T09:06:47.625Z,22.60
2022-09-12T09:09:18.016Z,22.80
2022-09-12T09:11:55.686Z,23.00
2022-09-12T09:14:50.922Z,23.00
2022-09-12T09:17:26.447Z,23.20
2022-09-12T09:19:58.153Z,23.30
2022-09-12T09:22:37.090Z,23.30
2022-09-12T09:25:07.673Z,23.40
2022-09-12T09:27:41.224Z,23.50
2022-09-12T09:30:14.378Z,23.60
2022-09-12T09:32:43.005Z,23.70
2022-09-12T09:35:18.947Z,23.80
2022-09-12T09:38:01.932Z,24.00
2022-09-12T09:40:35.973Z,24.10
2022-09-12T09:43:05.350Z,24.30
2022-09-12T09:45:33.459Z,24.50
2022-09-12T09:48:09.011Z,24.70
2022-09-12T09:50:37.262Z,24.80
2022-09-12T09:53:07.205Z,24.90
2022-09-12T09:55:39.615Z,24.90
2022-09-12T09:58:09.177Z,25.00
2022-09-12T10:00:38.377Z,25.00
2022-09-12T10:03:42.241Z,25.10
2022-09-12T10:06:24.181Z,25.10
2022-09-12T10:08:54.321Z,25.10
2022-09-12T10:11:27.036Z,25.20
2022-09-12T10:14:06.061Z,25.30
2022-09-12T10:16:38.693Z,25.40
2022-09-12T10:19:07.173Z,25.60
2022-09-12T10:21:35.935Z,25.60
2022-09-12T10:24:08.098Z,25.60
2022-09-12T10:26:39.629Z,25.70
2022-09-12T10:29:25.116Z,25.80
2022-09-12T10:31:55.656Z,25.80
2022-09-12T10:34:30.607Z,25.70
2022-09-12T10:37:05.224Z,25.60
2022-09-12T10:39:36.092Z,25.70
2022-09-12T10:42:04.712Z,25.70
2022-09-12T10:44:42.578Z,25.70
2022-09-12T10:47:24.717Z,25.70
2022-09-12T10:49:53.110Z,25.70
2022-09-12T10:52:24.322Z,25.60
2022-09-12T10:54:53.853Z,25.50
2022-09-12T10:57:54.469Z,25.60
2022-09-12T11:00:28.004Z,25.80
2022-09-12T11:03:04.485Z,25.90
2022-09-12T11:05:51.196Z,26.20
2022-09-12T11:08:42.522Z,26.50
2022-09-12T11:11:18.604Z,26.70
2022-09-12T11:14:00.665Z,26.70
2022-09-12T11:16:33.164Z,26.70
2022-09-12T11:19:12.097Z,26.70
2022-09-12T11:21:56.410Z,26.70
2022-09-12T11:24:43.197Z,26.60
2022-09-12T11:27:30.651Z,26.50
2022-09-12T11:29:59.953Z,26.50
2022-09-12T11:32:56.136Z,26.60
2022-09-12T11:35:31.556Z,26.70
2022-09-12T11:38:24.670Z,26.70
2022-09-12T11:40:55.911Z,26.80
2022-09-12T11:43:31.403Z,26.90
2022-09-12T11:46:03.505Z,26.90
2022-09-12T11:48:38.234Z,27.00
2022-09-12T11:51:12.944Z,27.10
2022-09-12T11:53:41.054Z,27.20
2022-09-12T11:56:14.183Z,27.40
2022-09-12T11:58:44.151Z,27.40
2022-09-12T12:01:14.301Z,27.60
2022-09-12T12:03:43.575Z,27.60
2022-09-12T12:06:15.478Z,27.50
2022-09-12T12:08:44.472Z,27.60
2022-09-12T12:11:18.803Z,27.60
2022-09-12T12:13:49.781Z,27.70
2022-09-12T12:16:22.451Z,27.80
2022-09-12T12:19:07.589Z,27.70
2022-09-12T12:21:47.300Z,27.70
2022-09-12T12:24:20.639Z,27.80
2022-09-12T12:27:12.276Z,27.80
2022-09-12T12:29:44.242Z,27.70
2022-09-12T12:32:28.118Z,27.70
2022-09-12T12:35:33.964Z,27.60
2022-09-12T12:38:02.425Z,27.50
2022-09-12T12:40:31.251Z,27.50
2022-09-12T12:43:21.818Z,27.50
2022-09-12T12:46:24.150Z,27.60
2022-09-12T12:48:58.129Z,27.70
2022-09-12T12:51:57.547Z,27.90
2022-09-12T12:54:49.543Z,28.00
2022-09-12T12:57:37.750Z,28.20
2022-09-12T13:00:08.971Z,28.50
2022-09-12T13:02:40.235Z,28.60
2022-09-12T13:05:17.560Z,28.60
2022-09-12T13:07:45.813Z,28.50
2022-09-12T13:10:23.329Z,28.50
2022-09-12T13:12:58.049Z,28.30
2022-09-12T13:15:50.144Z,28.10
2022-09-12T13:18:25.486Z,28.10
2022-09-12T13:20:55.332Z,28.10
2022-09-12T13:23:24.509Z,28.00
2022-09-12T13:26:05.089Z,28.00
2022-09-12T13:28:33.337Z,27.90
2022-09-12T13:31:12.736Z,28.00
2022-09-12T13:33:46.651Z,28.00
2022-09-12T13:36:37.859Z,28.20
2022-09-12T13:39:15.493Z,28.30
2022-09-12T13:42:32.623Z,28.30
2022-09-12T13:45:03.405Z,28.30
2022-09-12T13:47:33.439Z,28.30
2022-09-12T13:50:03.062Z,28.20
2022-09-12T13:52:31.893Z,28.20
2022-09-12T13:55:03.402Z,28.10
2022-09-12T13:57:39.482Z,28.10
2022-09-12T14:00:09.897Z,28.00
2022-09-12T14:02:38.664Z,27.90
2022-09-12T14:05:20.172Z,27.70
2022-09-12T14:07:57.562Z,27.50
2022-09-12T14:10:33.202Z,27.30
2022-09-12T14:13:09.227Z,27.30
2022-09-12T14:15:37.866Z,27.40
2022-09-12T14:18:24.987Z,27.50
2022-09-12T14:20:57.055Z,27.70
2022-09-12T14:23:31.138Z,27.80
2022-09-12T14:26:05.130Z,28.10
2022-09-12T14:28:39.374Z,28.30
2022-09-12T14:31:13.424Z,28.60
2022-09-12T14:33:49.727Z,28.70
2022-09-12T14:36:22.114Z,28.60
2022-09-12T14:38:59.373Z,28.60
2022-09-12T14:41:29.290Z,28.60
2022-09-12T14:44:00.303Z,28.60
2022-09-12T14:46:31.671Z,28.60
2022-09-12T14:49:06.469Z,28.50
2022-09-12T14:51:47.142Z,28.40
2022-09-12T14:54:37.439Z,28.00
2022-09-12T14:57:11.800Z,27.60
2022-09-12T14:59:43.993Z,27.30
2022-09-12T15:02:27.986Z,27.10
2022-09-12T15:04:56.817Z,27.10
2022-09-12T15:07:36.225Z,27.00
2022-09-12T15:10:05.886Z,27.00
2022-09-12T15:12:38.199Z,26.80
2022-09-12T15:15:20.478Z,26.80
2022-09-12T15:17:48.753Z,26.70
2022-09-12T15:20:23.342Z,26.60
2022-09-12T15:23:04.327Z,26.60
2022-09-12T15:25:35.027Z,26.50
2022-09-12T15:28:11.840Z,26.50
2022-09-12T15:30:40.527Z,26.70
2022-09-12T15:33:17.543Z,26.90
2022-09-12T15:35:54.201Z,27.20
2022-09-12T15:38:31.193Z,27.40
2022-09-12T15:41:27.304Z,27.40
2022-09-12T15:44:06.388Z,27.20
2022-09-12T15:49:34.767Z,26.90
2022-09-12T15:52:03.867Z,26.80
2022-09-12T15:54:33.279Z,26.70
2022-09-12T15:57:03.769Z,26.60
2022-09-12T15:59:38.060Z,26.40
2022-09-12T16:02:11.794Z,26.20
2022-09-12T16:04:50.324Z,26.10
2022-09-12T16:07:24.714Z,26.00
2022-09-12T16:10:01.687Z,25.90
2022-09-12T16:12:32.643Z,25.80
2022-09-12T16:15:00.826Z,25.80
2022-09-12T16:17:30.522Z,25.70
2022-09-12T16:20:00.321Z,25.80
2022-09-12T16:22:34.438Z,25.80
2022-09-12T16:25:02.621Z,25.80
2022-09-12T16:27:36.557Z,25.80
2022-09-12T16:30:10.045Z,25.80
2022-09-12T16:32:50.321Z,25.70
2022-09-12T16:35:41.057Z,25.60
2022-09-12T16:38:12.438Z,25.60
2022-09-12T16:40:43.459Z,25.50
2022-09-12T16:43:20.852Z,25.40
2022-09-12T16:45:56.927Z,25.30
2022-09-12T16:48:25.250Z,25.20
2022-09-12T16:51:05.448Z,25.10
2022-09-12T16:53:39.665Z,25.10
2022-09-12T16:56:09.928Z,25.00
2022-09-12T16:58:45.413Z,25.00
2022-09-12T17:01:22.611Z,25.00
2022-09-12T17:03:56.602Z,24.90
2022-09-12T17:06:28.491Z,24.90
2022-09-12T17:08:59.071Z,24.80
2022-09-12T17:11:30.523Z,24.80
2022-09-12T17:14:09.005Z,24.70
2022-09-12T17:16:39.628Z,24.70
2022-09-12T17:19:07.984Z,24.70
2022-09-12T17:21:37.692Z,24.60
2022-09-12T17:24:06.174Z,24.60
2022-09-12T17:26:36.451Z,24.60
2022-09-12T17:29:04.842Z,24.60
2022-09-12T17:31:33.489Z,24.60
2022-09-12T17:34:02.181Z,24.50
2022-09-12T17:36:32.163Z,24.40
2022-09-12T17:39:12.714Z,24.40
2022-09-12T17:41:42.917Z,24.40
2022-09-12T17:44:12.167Z,24.40
2022-09-12T17:46:51.154Z,24.40
2022-09-12T17:49:22.020Z,24.30
2022-09-12T17:51:52.132Z,24.30
2022-09-12T17:54:25.612Z,24.20
2022-09-12T17:56:56.440Z,24.20
2022-09-12T17:59:29.178Z,24.10
2022-09-12T18:02:16.140Z,24.00
2022-09-12T18:04:52.467Z,24.00
2022-09-12T18:07:25.139Z,23.90
2022-09-12T18:09:56.741Z,23.90
2022-09-12T18:12:25.131Z,23.80
2022-09-12T18:14:53.284Z,23.80
2022-09-12T18:17:21.683Z,23.70
2022-09-12T18:19:53.717Z,23.70
2022-09-12T18:22:22.142Z,23.70
2022-09-12T18:24:50.247Z,23.60
2022-09-12T18:27:20.475Z,23.50
2022-09-12T18:30:04.274Z,23.50
2022-09-12T18:32:36.796Z,23.50
2022-09-12T18:35:07.148Z,23.40
2022-09-12T18:37:35.385Z,23.40
2022-09-12T18:40:04.054Z,23.30
2022-09-12T18:42:33.754Z,23.20
2022-09-12T18:45:01.913Z,23.20
2022-09-12T18:47:30.089Z,23.10
2022-09-12T18:49:58.523Z,23.10
2022-09-12T18:52:26.710Z,23.10
2022-09-12T18:54:55.185Z,23.00
2022-09-12T18:57:23.247Z,23.00
2022-09-12T18:59:54.045Z,22.90
2022-09-12T19:02:22.357Z,22.80
2022-09-12T19:04:50.498Z,22.80
2022-09-12T19:07:19.660Z,22.80
2022-09-12T19:09:47.794Z,22.90
2022-09-12T19:12:16.141Z,22.90
2022-09-12T19:14:47.725Z,22.80
2022-09-12T19:17:20.276Z,22.80
2022-09-12T19:19:48.555Z,22.80
2022-09-12T19:22:23.580Z,22.80
2022-09-12T19:24:51.681Z,22.80
2022-09-12T19:27:21.625Z,22.80
2022-09-12T19:29:50.203Z,22.80
2022-09-12T19:32:19.885Z,22.80
2022-09-12T19:34:48.314Z,22.80
2022-09-12T19:37:16.440Z,22.80
2022-09-12T19:39:46.217Z,22.80
2022-09-12T19:42:14.487Z,22.80
2022-09-12T19:44:42.855Z,22.70
2022-09-12T19:47:11.583Z,22.70
2022-09-12T19:49:43.429Z,22.70
2022-09-12T19:52:14.430Z,22.70
2022-09-12T19:54:45.626Z,22.70
2022-09-12T19:57:15.158Z,22.60
2022-09-12T19:59:45.204Z,22.60
2022-09-12T20:02:13.923Z,22.60
2022-09-12T20:04:43.815Z,22.60
2022-09-12T20:07:12.399Z,22.60
2022-09-12T20:09:40.551Z,22.50
2022-09-12T20:12:08.763Z,22.50
2022-09-12T20:14:36.802Z,22.40
2022-09-12T20:17:05.386Z,22.40
2022-09-12T20:19:33.466Z,22.30
2022-09-12T20:22:03.228Z,22.30
2022-09-12T20:24:31.642Z,22.30
2022-09-12T20:26:59.927Z,22.20
2022-09-12T20:29:28.701Z,22.20
2022-09-12T20:31:57.310Z,22.10
2022-09-12T20:34:25.499Z,22.10
2022-09-12T20:36:57.235Z,22.00
2022-09-12T20:39:28.544Z,22.00
2022-09-12T20:42:00.024Z,22.00
2022-09-12T20:44:30.990Z,22.00
2022-09-12T20:47:00.399Z,22.00
2022-09-12T20:49:28.923Z,22.00
2022-09-12T20:51:57.637Z,22.00
2022-09-12T20:54:27.325Z,22.00
2022-09-12T20:56:55.700Z,21.90
2022-09-12T20:59:26.631Z,21.80
2022-09-12T21:01:54.846Z,21.80
2022-09-12T21:04:23.905Z,21.80
2022-09-12T21:06:52.407Z,21.70
2022-09-12T21:09:23.199Z,21.70
2022-09-12T21:11:52.986Z,21.70
2022-09-12T21:14:24.252Z,21.70
2022-09-12T21:16:52.823Z,21.70
2022-09-12T21:19:31.680Z,21.60
2022-09-12T21:22:04.699Z,21.70
2022-09-12T21:24:34.914Z,21.70
2022-09-12T21:27:05.091Z,21.70
2022-09-12T21:29:36.099Z,21.60
2022-09-12T21:32:07.528Z,21.70
2022-09-12T21:34:37.255Z,21.70
2022-09-12T21:37:05.498Z,21.60
2022-09-12T21:39:47.678Z,21.60
2022-09-12T21:42:17.511Z,21.60
2022-09-12T21:44:45.716Z,21.50
2022-09-12T21:47:16.377Z,21.50
2022-09-12T21:49:49.983Z,21.50
2022-09-12T21:52:19.970Z,21.40
2022-09-12T21:54:48.184Z,21.40
2022-09-12T21:57:17.849Z,21.40
2022-09-12T21:59:46.275Z,21.30
2022-09-12T22:02:16.109Z,21.30
2022-09-12T22:04:46.305Z,21.30
2022-09-12T22:07:15.032Z,21.30
2022-09-12T22:09:43.547Z,21.30
2022-09-12T22:12:11.850Z,21.30
2022-09-12T22:14:45.000Z,21.30
2022-09-12T22:17:13.744Z,21.30
2022-09-12T22:19:49.563Z,21.30
2022-09-12T22:22:35.132Z,21.30
2022-09-12T22:25:03.541Z,21.30
2022-09-12T22:27:31.713Z,21.30
2022-09-12T22:30:04.186Z,21.30
2022-09-12T22:32:32.771Z,21.30
2022-09-12T22:35:00.941Z,21.30
2022-09-12T22:37:29.220Z,21.30
2022-09-12T22:39:57.422Z,21.30
2022-09-12T22:42:29.779Z,21.30
2022-09-12T22:44:57.909Z,21.30
2022-09-12T22:47:27.659Z,21.30
2022-09-12T22:50:10.680Z,21.30
2022-09-12T22:52:39.176Z,21.20
2022-09-12T22:55:07.854Z,21.20
2022-09-12T22:57:36.064Z,21.30
2022-09-12T23:00:07.051Z,21.30
2022-09-12T23:02:36.661Z,21.20
2022-09-12T23:05:06.260Z,21.30
2022-09-12T23:07:34.434Z,21.20
2022-09-12T23:10:03.212Z,21.20
2022-09-12T23:12:32.718Z,21.20
2022-09-12T23:15:00.758Z,21.20
2022-09-12T23:17:29.548Z,21.20
2022-09-12T23:19:59.086Z,21.20
2022-09-12T23:22:27.318Z,21.30
2022-09-12T23:24:56.143Z,21.20
2022-09-12T23:27:27.505Z,21.30
2022-09-12T23:29:58.283Z,21.20
2022-09-12T23:32:26.419Z,21.20
2022-09-12T23:34:54.690Z,21.20
2022-09-12T23:37:24.292Z,21.20
2022-09-12T23:39:52.727Z,21.20
2022-09-12T23:42:22.330Z,21.20
2022-09-12T23:44:50.466Z,21.20
2022-09-12T23:47:20.732Z,21.10
2022-09-12T23:49:48.990Z,21.10
2022-09-12T23:52:17.227Z,21.10
2022-09-12T23:54:47.172Z,21.10
2022-09-12T23:57:16.039Z,21.00
2022-09-12T23:59:47.611Z,21.00
